Time;durP1;ratioP1;P1;durP2;ratioP2;P2;SDS_P1;SDS_P2;PMS_P1;PMS_P2;Temp;Humidity;BMP_temperature;BMP_pressure;BME280_temperature;BME280_humidity;BME280_pressure;Samples;Min_cycle;Max_cycle;Signal;HPM_P1;HPM_P2
2021/09/17 00:00:20;;;;;;;;;;;;;;;16.15;73.27;100130.22;5016776;28;19928;-63
2021/09/17 00:03:10;;;;;;;;;;;;;;;16.15;73.13;100125.00;5017084;28;19975;-63
2021/09/17 00:06:00;;;;;;;;;;;;;;;16.15;73.21;100127.63;5015945;28;19933;-64
2021/09/17 00:08:50;;;;;;;;;;;;;;;16.13;73.06;100125.00;5016818;28;20436;-64
2021/09/17 00:11:34;;;;;;;;;;;;;;;16.13;73.06;100126.75;5016000;28;19980;-64
2021/09/17 00:14:18;;;;;;;;;;;;;;;16.11;73.18;100118.94;5017086;28;19927;-62
2021/09/17 00:17:02;;;;;;;;;;;;;;;16.12;72.99;100123.25;5017064;28;19928;-64
2021/09/17 00:19:53;;;;;;;;;;;;;;;16.10;73.16;100117.19;5016611;28;19928;-63
2021/09/17 00:22:37;;;;;;;;;;;;;;;16.11;73.02;100125.88;5016348;28;20438;-63
2021/09/17 00:25:20;;;;;;;;;;;;;;;16.11;73.18;100124.16;5015641;28;19968;-63
2021/09/17 00:28:07;;;;;;;;;;;;;;;16.10;73.19;100126.75;5016635;28;20009;-64
2021/09/17 00:30:51;;;;;;;;;;;;;;;16.10;73.04;100122.41;5015661;28;19929;-64
2021/09/17 00:33:38;;;;;;;;;;;;;;;16.10;73.04;100121.53;5016704;28;19928;-63
2021/09/17 00:36:22;;;;;;;;;;;;;;;16.10;73.15;100125.03;5016272;28;19971;-64
2021/09/17 00:39:06;;;;;;;;;;;;;;;16.08;72.99;100113.72;5015923;28;20022;-64
2021/09/17 00:41:57;;;;;;;;;;;;;;;16.08;73.22;100113.72;5015231;28;20396;-64
2021/09/17 00:44:41;;;;;;;;;;;;;;;16.08;73.04;100113.72;5015596;28;20008;-64
2021/09/17 00:47:30;;;;;;;;;;;;;;;16.07;73.01;100105.84;5015880;28;19979;-64
2021/09/17 00:50:16;;;;;;;;;;;;;;;16.08;73.06;100108.47;5014909;28;20442;-64
2021/09/17 00:53:03;;;;;;;;;;;;;;;16.07;73.17;100106.75;5015911;28;19929;-64
2021/09/17 00:55:47;;;;;;;;;;;;;;;16.05;73.07;100108.50;5015431;28;19929;-64
2021/09/17 00:58:34;;;;;;;;;;;;;;;16.06;73.05;100098.88;5016209;28;19975;-64
2021/09/17 01:01:18;;;;;;;;;;;;;;;16.04;73.24;100092.81;5014744;28;19967;-64
2021/09/17 01:04:02;;;;;;;;;;;;;;;16.04;73.10;100098.91;5014675;28;20327;-62
2021/09/17 01:06:53;;;;;;;;;;;;;;;16.03;73.04;100098.94;5015608;28;19975;-62
2021/09/17 01:09:38;;;;;;;;;;;;;;;16.03;73.06;100099.78;5015092;28;19971;-62
2021/09/17 01:12:22;;;;;;;;;;;;;;;16.04;73.11;100098.06;5015762;28;19928;-63
2021/09/17 01:15:07;;;;;;;;;;;;;;;16.03;72.73;100088.47;5015115;28;19975;-62
2021/09/17 01:18:00;;;;;;;;;;;;;;;16.02;73.02;100092.81;5015189;28;19929;-62
2021/09/17 01:20:49;;;;;;;;;;;;;;;16.02;72.91;100084.97;5028579;28;19959;-62
2021/09/17 01:23:42;;;;;;;;;;;;;;;16.02;73.13;100084.13;5014618;28;19929;-63
2021/09/17 01:26:26;;;;;;;;;;;;;;;16.01;73.06;100085.84;5014363;28;19990;-63
2021/09/17 01:29:13;;;;;;;;;;;;;;;16.00;73.14;100085.88;5015631;28;19961;-62
2021/09/17 01:32:03;;;;;;;;;;;;;;;15.97;73.01;100090.25;5015286;28;20407;-62
2021/09/17 01:34:47;;;;;;;;;;;;;;;15.97;72.93;100084.13;5014643;28;19959;-62
2021/09/17 01:37:36;;;;;;;;;;;;;;;15.96;73.09;100091.13;5015671;28;20079;-62
2021/09/17 01:40:21;;;;;;;;;;;;;;;15.95;72.94;100081.53;5014874;28;20503;-63
2021/09/17 01:43:04;;;;;;;;;;;;;;;15.95;72.97;100091.13;5014746;28;19979;-62
2021/09/17 01:45:49;;;;;;;;;;;;;;;15.94;72.95;100084.16;5015162;28;20016;-64
2021/09/17 01:48:39;;;;;;;;;;;;;;;15.94;72.95;100086.78;5014081;28;19972;-65
2021/09/17 01:51:28;;;;;;;;;;;;;;;15.93;73.00;100082.44;5013174;28;19928;-64
2021/09/17 01:54:12;;;;;;;;;;;;;;;15.91;73.12;100079.81;5013780;28;19928;-62
2021/09/17 01:57:02;;;;;;;;;;;;;;;15.91;72.93;100074.56;5015091;28;19928;-62
2021/09/17 01:59:46;;;;;;;;;;;;;;;15.91;73.16;100064.13;5013699;28;19928;-62
2021/09/17 02:02:30;;;;;;;;;;;;;;;15.89;72.96;100062.41;5014783;28;19993;-62
2021/09/17 02:05:22;;;;;;;;;;;;;;;15.89;73.01;100068.50;5014654;28;20442;-64
2021/09/17 02:08:11;;;;;;;;;;;;;;;15.90;72.94;100061.53;5014029;28;20037;-63
2021/09/17 02:10:59;;;;;;;;;;;;;;;15.89;72.94;100057.19;5014067;28;19929;-63
2021/09/17 02:13:43;;;;;;;;;;;;;;;15.88;73.10;100055.44;5014305;28;20003;-63
2021/09/17 02:16:31;;;;;;;;;;;;;;;15.85;72.90;100053.72;5027872;28;19947;-63
2021/09/17 02:19:15;;;;;;;;;;;;;;;15.84;72.92;100060.66;5014142;28;20016;-63
2021/09/17 02:21:59;;;;;;;;;;;;;;;15.84;73.01;100046.72;5014354;28;19928;-63
2021/09/17 02:24:43;;;;;;;;;;;;;;;15.84;72.96;100051.94;5014800;28;20012;-63
2021/09/17 02:27:32;;;;;;;;;;;;;;;15.83;72.92;100053.69;5013414;28;20363;-63
2021/09/17 02:30:19;;;;;;;;;;;;;;;15.81;72.87;100055.44;5013653;28;19928;-63
2021/09/17 02:33:10;;;;;;;;;;;;;;;15.82;73.13;100043.25;5013767;28;19988;-64
2021/09/17 02:35:57;;;;;;;;;;;;;;;15.80;72.91;100050.22;5013954;28;20083;-63
2021/09/17 02:38:44;;;;;;;;;;;;;;;15.80;72.86;100055.44;5014466;28;20319;-63
2021/09/17 02:41:31;;;;;;;;;;;;;;;15.79;73.02;100044.16;5013301;28;19928;-64
2021/09/17 02:44:17;;;;;;;;;;;;;;;15.78;73.01;100046.75;5013653;28;19980;-63
2021/09/17 02:47:04;;;;;;;;;;;;;;;15.76;73.02;100048.50;5013411;28;19928;-63
2021/09/17 02:49:48;;;;;;;;;;;;;;;15.75;72.93;100051.97;5013464;28;19972;-63
2021/09/17 02:52:35;;;;;;;;;;;;;;;15.73;72.81;100045.91;5013093;28;20014;-63
2021/09/17 02:55:24;;;;;;;;;;;;;;;15.71;72.86;100045.06;5013244;28;19929;-63
2021/09/17 02:58:08;;;;;;;;;;;;;;;15.69;72.74;100042.44;5012928;28;19928;-62
2021/09/17 03:00:57;;;;;;;;;;;;;;;15.67;72.74;100036.34;5014134;28;19929;-64
2021/09/17 03:03:49;;;;;;;;;;;;;;;15.66;72.88;100038.09;5015168;28;19974;-64
2021/09/17 03:06:33;;;;;;;;;;;;;;;15.65;72.93;100036.38;5016958;28;20400;-64
2021/09/17 03:09:20;;;;;;;;;;;;;;;15.66;72.89;100027.66;5017643;28;19975;-64
2021/09/17 03:12:07;;;;;;;;;;;;;;;15.64;72.87;100028.56;5017908;28;19948;-62
2021/09/17 03:14:51;;;;;;;;;;;;;;;15.64;72.80;100023.31;5017358;28;19944;-63
2021/09/17 03:17:37;;;;;;;;;;;;;;;15.64;72.71;100023.31;5018306;28;19933;-62
2021/09/17 03:20:27;;;;;;;;;;;;;;;15.62;72.82;100020.69;5016972;28;20400;-62
2021/09/17 03:23:17;;;;;;;;;;;;;;;15.62;72.88;100025.94;5016799;28;19972;-63
2021/09/17 03:26:01;;;;;;;;;;;;;;;15.60;72.64;100017.22;5016485;28;20343;-62
2021/09/17 03:28:51;;;;;;;;;;;;;;;15.60;72.76;100016.38;5017666;28;19933;-62
2021/09/17 03:31:39;;;;;;;;;;;;;;;15.60;72.90;100018.97;5017712;28;19932;-64
2021/09/17 03:34:23;;;;;;;;;;;;;;;15.57;72.86;100017.22;5016643;28;19932;-64
2021/09/17 03:37:07;;;;;;;;;;;;;;;15.57;72.86;100009.41;5017400;28;20395;-64
2021/09/17 03:39:54;;;;;;;;;;;;;;;15.57;72.90;100004.19;5017465;28;20071;-64
2021/09/17 03:42:41;;;;;;;;;;;;;;;15.56;72.88;99996.34;5016008;28;20300;-63
2021/09/17 03:45:32;;;;;;;;;;;;;;;15.56;72.92;99993.75;5016470;28;19932;-63
2021/09/17 03:48:16;;;;;;;;;;;;;;;15.55;72.81;99999.84;5016633;28;19928;-62
2021/09/17 03:51:00;;;;;;;;;;;;;;;15.57;72.86;99990.25;5017150;28;19964;-62
2021/09/17 03:53:44;;;;;;;;;;;;;;;15.56;72.71;99989.41;5017359;28;19928;-64
2021/09/17 03:56:28;;;;;;;;;;;;;;;15.58;72.85;99984.16;5016796;28;19928;-62
2021/09/17 03:59:14;;;;;;;;;;;;;;;15.58;72.83;99984.16;5017211;28;19929;-62
2021/09/17 04:02:00;;;;;;;;;;;;;;;15.58;72.89;99984.16;5015964;28;19937;-62
2021/09/17 04:04:44;;;;;;;;;;;;;;;15.56;72.88;99976.34;5017369;28;20079;-62
2021/09/17 04:07:36;;;;;;;;;;;;;;;15.56;72.72;99986.81;5015854;28;19924;-62
2021/09/17 04:10:26;;;;;;;;;;;;;;;15.56;72.98;99983.31;5015960;28;20020;-62
2021/09/17 04:13:10;;;;;;;;;;;;;;;15.56;72.77;99983.31;5015812;28;19927;-62
2021/09/17 04:15:56;;;;;;;;;;;;;;;15.56;72.88;99980.69;5016402;28;19944;-62
2021/09/17 04:18:40;;;;;;;;;;;;;;;15.56;72.79;99981.56;5016942;28;19976;-62
2021/09/17 04:21:27;;;;;;;;;;;;;;;15.55;72.75;99982.44;5016761;28;19931;-62
2021/09/17 04:24:14;;;;;;;;;;;;;;;15.56;72.79;99978.06;5016525;28;19927;-62
2021/09/17 04:27:01;;;;;;;;;;;;;;;15.54;72.89;99983.31;5015547;28;19975;-64
2021/09/17 04:29:45;;;;;;;;;;;;;;;15.53;72.74;99976.38;5016224;28;20004;-62
2021/09/17 04:32:29;;;;;;;;;;;;;;;15.51;72.76;99978.97;5016788;28;19928;-64
2021/09/17 04:35:13;;;;;;;;;;;;;;;15.50;72.85;99978.97;5016238;28;19927;-64
2021/09/17 04:38:00;;;;;;;;;;;;;;;15.49;72.67;99979.84;5015402;28;20339;-63
2021/09/17 04:40:50;;;;;;;;;;;;;;;15.46;72.86;99975.53;5015475;28;19928;-63
2021/09/17 04:43:36;;;;;;;;;;;;;;;15.46;72.80;99975.53;5016510;28;19928;-64
2021/09/17 04:46:23;;;;;;;;;;;;;;;15.46;72.76;99985.97;5016216;28;19928;-62
2021/09/17 04:49:13;;;;;;;;;;;;;;;15.47;72.71;99973.78;5015217;28;20018;-62
2021/09/17 04:52:06;;;;;;;;;;;;;;;15.48;72.84;99976.38;5015031;28;20024;-62
2021/09/17 04:54:50;;;;;;;;;;;;;;;15.47;72.92;99986.81;5014956;28;19967;-61
2021/09/17 04:57:37;;;;;;;;;;;;;;;15.47;72.90;99986.81;5015842;28;20296;-62
2021/09/17 05:00:21;;;;;;;;;;;;;;;15.48;72.75;99980.72;5015196;28;20296;-62
2021/09/17 05:03:05;;;;;;;;;;;;;;;15.46;72.88;99978.13;5016142;28;19931;-62
2021/09/17 05:05:49;;;;;;;;;;;;;;;15.47;72.83;99992.94;5014713;28;19929;-62
2021/09/17 05:08:42;;;;;;;;;;;;;;;15.47;72.90;99984.22;5015699;28;19929;-62
2021/09/17 05:11:31;;;;;;;;;;;;;;;15.46;72.67;99985.97;5014320;28;19944;-62
2021/09/17 05:14:18;;;;;;;;;;;;;;;15.46;72.76;99988.59;5014618;28;19932;-62
2021/09/17 05:17:02;;;;;;;;;;;;;;;15.44;72.90;99995.56;5014635;28;20020;-62
2021/09/17 05:19:46;;;;;;;;;;;;;;;15.44;72.90;99995.56;5015892;28;19928;-62
2021/09/17 05:22:30;;;;;;;;;;;;;;;15.44;72.90;99998.16;5015864;28;19984;-62
2021/09/17 05:25:14;;;;;;;;;;;;;;;15.42;72.83;100001.63;5015631;28;19944;-62
2021/09/17 05:28:01;;;;;;;;;;;;;;;15.42;72.77;99999.91;5014105;28;19991;-62
2021/09/17 05:30:44;;;;;;;;;;;;;;;15.43;72.82;100000.75;5013940;28;19932;-62
2021/09/17 05:33:34;;;;;;;;;;;;;;;15.42;72.79;100001.63;5014557;28;19968;-62
2021/09/17 05:36:18;;;;;;;;;;;;;;;15.42;72.83;99999.03;5014272;28;19971;-62
2021/09/17 05:39:07;;;;;;;;;;;;;;;15.43;72.80;100003.38;5015251;28;20395;-63
2021/09/17 05:41:57;;;;;;;;;;;;;;;15.41;72.85;100002.53;5015198;28;20048;-62
2021/09/17 05:44:44;;;;;;;;;;;;;;;15.40;72.86;100004.28;5028081;28;19928;-62
2021/09/17 05:47:28;;;;;;;;;;;;;;;15.40;72.82;100006.88;5015273;28;19928;-62
2021/09/17 05:50:18;;;;;;;;;;;;;;;15.41;72.73;100015.59;5015029;28;19929;-62
2021/09/17 05:53:08;;;;;;;;;;;;;;;15.42;72.92;100017.31;5013699;28;20432;-62
2021/09/17 05:55:58;;;;;;;;;;;;;;;15.42;72.77;100012.09;5014351;28;19929;-62
2021/09/17 05:58:48;;;;;;;;;;;;;;;15.40;72.76;100003.41;5014197;28;19928;-62
2021/09/17 06:01:34;;;;;;;;;;;;;;;15.40;72.95;100004.28;5013823;28;20023;-63
2021/09/17 06:04:24;;;;;;;;;;;;;;;15.40;72.93;100001.66;5014436;28;20305;-62
2021/09/17 06:07:14;;;;;;;;;;;;;;;15.42;72.85;100001.63;5013957;28;20383;-62
2021/09/17 06:09:58;;;;;;;;;;;;;;;15.40;72.92;100000.81;5014166;28;20021;-62
2021/09/17 06:12:45;;;;;;;;;;;;;;;15.39;72.80;99999.91;5014209;28;20009;-63
2021/09/17 06:15:34;;;;;;;;;;;;;;;15.38;72.91;100008.63;5014886;28;19928;-62
2021/09/17 06:18:19;;;;;;;;;;;;;;;15.39;72.86;100010.38;5014113;28;19929;-62
2021/09/17 06:21:10;;;;;;;;;;;;;;;15.40;72.88;100003.41;5013885;28;20331;-62
2021/09/17 06:24:03;;;;;;;;;;;;;;;15.38;72.89;100012.13;5013976;28;19928;-62
2021/09/17 06:26:50;;;;;;;;;;;;;;;15.37;72.89;100007.78;5014010;28;19975;-62
2021/09/17 06:29:34;;;;;;;;;;;;;;;15.36;72.89;100013.88;5014469;28;19928;-62
2021/09/17 06:32:18;;;;;;;;;;;;;;;15.37;72.95;100006.88;5014126;28;20424;-62
2021/09/17 06:35:07;;;;;;;;;;;;;;;15.35;72.99;100006.91;5014164;28;20447;-62
2021/09/17 06:37:52;;;;;;;;;;;;;;;15.36;73.01;100003.44;5014316;28;19928;-62
2021/09/17 06:40:45;;;;;;;;;;;;;;;15.35;73.02;100000.81;5013705;28;19975;-62
2021/09/17 06:43:29;;;;;;;;;;;;;;;15.36;72.94;100002.53;5013669;28;19957;-62
2021/09/17 06:46:18;;;;;;;;;;;;;;;15.36;72.84;99999.94;5013474;28;19983;-62
2021/09/17 06:49:05;;;;;;;;;;;;;;;15.37;73.04;100006.88;5013138;28;19972;-62
2021/09/17 06:51:58;;;;;;;;;;;;;;;15.37;72.95;99999.06;5013775;28;20289;-62
2021/09/17 06:54:50;;;;;;;;;;;;;;;15.37;73.06;100005.16;5013991;28;20288;-62
2021/09/17 06:57:47;;;;;;;;;;;;;;;15.38;72.99;100012.13;5014252;28;19932;-62
2021/09/17 07:00:33;;;;;;;;;;;;;;;15.37;73.08;100002.56;5013472;28;19929;-62
2021/09/17 07:03:17;;;;;;;;;;;;;;;15.40;73.08;100000.81;5014260;28;19944;-62
2021/09/17 07:06:04;;;;;;;;;;;;;;;15.40;73.23;100003.41;5014388;28;19972;-62
2021/09/17 07:08:54;;;;;;;;;;;;;;;15.40;72.95;99999.03;5014404;28;19944;-62
2021/09/17 07:11:46;;;;;;;;;;;;;;;15.42;73.15;99996.41;5012982;28;19928;-62
2021/09/17 07:14:36;;;;;;;;;;;;;;;15.43;73.15;100004.25;5012928;28;19928;-62
2021/09/17 07:17:29;;;;;;;;;;;;;;;15.44;73.13;99990.34;5012761;28;20407;-62
2021/09/17 07:20:22;;;;;;;;;;;;;;;15.45;73.09;99997.28;5013100;28;20459;-63
2021/09/17 07:23:06;;;;;;;;;;;;;;;15.46;73.12;99991.19;5013202;28;19971;-62
2021/09/17 07:25:56;;;;;;;;;;;;;;;15.47;73.26;99992.06;5012689;28;20339;-62
2021/09/17 07:28:40;;;;;;;;;;;;;;;15.47;73.27;99994.66;5013259;28;20388;-62
2021/09/17 07:31:35;;;;;;;;;;;;;;;15.51;73.30;99996.38;5013606;28;20412;-62
2021/09/17 07:34:28;;;;;;;;;;;;;;;15.49;73.32;99996.38;5014096;28;20388;-62
2021/09/17 07:37:21;;;;;;;;;;;;;;;15.49;73.32;99990.31;5013931;28;20468;-63
2021/09/17 07:40:12;;;;;;;;;;;;;;;15.50;73.33;99985.06;5012633;28;19932;-62
2021/09/17 07:43:02;;;;;;;;;;;;;;;15.51;73.27;99993.78;5012853;28;20028;-62
2021/09/17 07:45:54;;;;;;;;;;;;;;;15.53;73.41;99992.88;5013056;28;20012;-62
2021/09/17 07:48:43;;;;;;;;;;;;;;;15.55;73.16;99998.13;5012897;28;20342;-62
2021/09/17 07:51:28;;;;;;;;;;;;;;;15.56;73.30;99998.97;5030137;28;19928;-62
2021/09/17 07:54:15;;;;;;;;;;;;;;;15.57;73.35;100000.72;5016519;28;19928;-62
2021/09/17 07:57:03;;;;;;;;;;;;;;;15.57;73.37;99991.13;5016178;28;19929;-62
2021/09/17 07:59:47;;;;;;;;;;;;;;;15.58;73.46;99989.38;5016581;28;20434;-62
2021/09/17 08:02:40;;;;;;;;;;;;;;;15.60;73.47;99995.47;5017311;28;20285;-62
2021/09/17 08:05:30;;;;;;;;;;;;;;;15.61;73.47;99989.38;5015991;28;19933;-62
2021/09/17 08:08:14;;;;;;;;;;;;;;;15.62;73.65;99991.97;5015878;28;19928;-62
2021/09/17 08:10:58;;;;;;;;;;;;;;;15.64;73.62;99995.44;5016625;28;19943;-62
2021/09/17 08:13:42;;;;;;;;;;;;;;;15.65;73.63;99991.97;5015940;28;19975;-62
2021/09/17 08:16:26;;;;;;;;;;;;;;;15.67;73.72;100000.66;5016799;28;19929;-62
2021/09/17 08:19:10;;;;;;;;;;;;;;;15.68;73.61;99998.91;5016760;28;19929;-62
2021/09/17 08:21:57;;;;;;;;;;;;;;;15.71;73.66;100003.25;5016398;28;19928;-62
2021/09/17 08:24:46;;;;;;;;;;;;;;;15.73;73.67;100006.69;5015863;28;20051;-62
2021/09/17 08:27:39;;;;;;;;;;;;;;;15.75;73.67;100011.06;5030515;28;20304;-62
2021/09/17 08:30:25;;;;;;;;;;;;;;;15.77;73.69;100006.69;5015241;28;20017;-62
2021/09/17 08:33:13;;;;;;;;;;;;;;;15.78;73.66;100005.81;5016174;28;19928;-62
2021/09/17 08:36:00;;;;;;;;;;;;;;;15.81;73.63;100005.78;5015900;28;19928;-62
2021/09/17 08:38:47;;;;;;;;;;;;;;;15.83;73.68;100009.25;5015806;28;19928;-63
2021/09/17 08:41:34;;;;;;;;;;;;;;;15.86;73.54;100015.38;5016167;28;19974;-63
2021/09/17 08:44:23;;;;;;;;;;;;;;;15.89;73.50;100004.91;5016293;28;19975;-63
2021/09/17 08:47:13;;;;;;;;;;;;;;;15.90;73.52;100004.88;5015608;28;19983;-62
2021/09/17 08:50:02;;;;;;;;;;;;;;;15.92;73.54;99999.66;5016002;28;19929;-62
2021/09/17 08:52:49;;;;;;;;;;;;;;;15.93;73.55;99994.44;5015431;28;19928;-62
2021/09/17 08:55:33;;;;;;;;;;;;;;;15.96;73.69;99998.78;5015080;28;20008;-62
2021/09/17 08:58:19;;;;;;;;;;;;;;;15.98;73.52;99994.38;5016044;28;19943;-62
2021/09/17 09:01:04;;;;;;;;;;;;;;;16.00;73.63;100005.69;5015030;28;20320;-62
2021/09/17 09:03:48;;;;;;;;;;;;;;;16.02;73.47;100003.09;5015952;28;19928;-63
2021/09/17 09:06:39;;;;;;;;;;;;;;;16.04;73.46;100002.19;5015934;28;19929;-62
2021/09/17 09:09:25;;;;;;;;;;;;;;;16.07;73.55;99996.06;5015698;28;20293;-62
2021/09/17 09:12:09;;;;;;;;;;;;;;;16.10;73.59;100001.28;5015854;28;19928;-62
2021/09/17 09:15:14;;;;;;;;;;;;;;;16.12;73.50;100004.75;5015831;28;19928;-62
2021/09/17 09:18:10;;;;;;;;;;;;;;;16.14;73.49;99997.78;5014727;28;20403;-64
2021/09/17 09:21:00;;;;;;;;;;;;;;;16.16;73.52;99997.75;5014686;28;20455;-62
2021/09/17 09:23:44;;;;;;;;;;;;;;;16.19;73.47;100001.22;5028780;28;20072;-62
2021/09/17 09:26:37;;;;;;;;;;;;;;;16.21;73.64;100004.66;5015846;28;19928;-62
2021/09/17 09:29:30;;;;;;;;;;;;;;;16.24;73.59;99995.97;5014273;28;19976;-62
2021/09/17 09:32:24;;;;;;;;;;;;;;;16.26;73.57;99999.44;5014533;28;20437;-62
2021/09/17 09:35:09;;;;;;;;;;;;;;;16.28;73.42;99989.78;5015657;28;20400;-62
2021/09/17 09:37:59;;;;;;;;;;;;;;;16.31;73.60;99997.63;5015330;28;19928;-62
2021/09/17 09:40:44;;;;;;;;;;;;;;;16.33;73.57;100006.31;5014280;28;19983;-62
2021/09/17 09:43:31;;;;;;;;;;;;;;;16.35;73.56;99994.09;5014246;28;19936;-63
2021/09/17 09:46:29;;;;;;;;;;;;;;;16.38;73.47;99999.31;5014330;28;20312;-62
2021/09/17 09:49:13;;;;;;;;;;;;;;;16.40;73.43;99992.34;5014679;28;19975;-64
2021/09/17 09:52:06;;;;;;;;;;;;;;;16.42;73.51;99995.81;5014728;28;20462;-62
2021/09/17 09:54:50;;;;;;;;;;;;;;;16.46;73.37;99998.38;5013781;28;20015;-63
2021/09/17 09:57:35;;;;;;;;;;;;;;;16.47;73.55;99995.75;5014869;28;19928;-64
2021/09/17 10:00:19;;;;;;;;;;;;;;;16.49;73.26;99993.13;5015289;28;19983;-64
2021/09/17 10:03:03;;;;;;;;;;;;;;;16.50;73.58;99984.38;5015106;28;19928;-63
2021/09/17 10:05:53;;;;;;;;;;;;;;;16.52;73.47;99986.09;5014078;28;19975;-63
2021/09/17 10:08:37;;;;;;;;;;;;;;;16.56;73.43;99981.72;5013721;28;19972;-63
2021/09/17 10:11:22;;;;;;;;;;;;;;;16.58;73.38;99982.59;5014362;28;19968;-63
2021/09/17 10:14:07;;;;;;;;;;;;;;;16.59;73.40;99981.66;5012936;28;19932;-61
2021/09/17 10:16:51;;;;;;;;;;;;;;;16.60;73.30;99980.78;5014171;28;19928;-62
2021/09/17 10:19:36;;;;;;;;;;;;;;;16.62;73.21;99981.66;5014145;28;20415;-62
2021/09/17 10:22:30;;;;;;;;;;;;;;;16.64;73.28;99982.50;5013754;28;19928;-62
2021/09/17 10:25:16;;;;;;;;;;;;;;;16.64;73.33;99979.88;5013454;28;19927;-64
2021/09/17 10:28:04;;;;;;;;;;;;;;;16.66;73.32;99979.91;5014367;28;20635;-64
2021/09/17 10:30:48;;;;;;;;;;;;;;;16.65;73.17;99976.38;5014294;28;19944;-62
2021/09/17 10:33:32;;;;;;;;;;;;;;;16.67;73.26;99973.75;5014155;28;20404;-62
2021/09/17 10:36:36;;;;;;;;;;;;;;;16.68;73.28;99981.59;5014428;28;19979;-63
2021/09/17 10:39:20;;;;;;;;;;;;;;;16.70;73.15;99973.72;5014309;28;20331;-63
2021/09/17 10:42:07;;;;;;;;;;;;;;;16.71;73.07;99968.50;5013615;28;19979;-64
2021/09/17 10:45:06;;;;;;;;;;;;;;;16.74;73.01;99965.81;5014195;28;19929;-63
2021/09/17 10:47:54;;;;;;;;;;;;;;;16.78;73.03;99963.16;5014179;28;20292;-63
2021/09/17 10:50:38;;;;;;;;;;;;;;;16.78;73.14;99963.16;5014191;28;19968;-63
2021/09/17 10:53:41;;;;;;;;;;;;;;;16.79;73.17;99960.56;5014535;28;19930;-63
2021/09/17 10:56:25;;;;;;;;;;;;;;;16.83;72.95;99956.16;5014443;28;19929;-63
2021/09/17 10:59:21;;;;;;;;;;;;;;;16.84;72.93;99955.25;5013920;28;19929;-63
2021/09/17 11:02:09;;;;;;;;;;;;;;;16.84;72.88;99950.88;5013969;28;20364;-63
2021/09/17 11:05:14;;;;;;;;;;;;;;;16.86;73.01;99949.13;5012606;28;19928;-62
2021/09/17 11:07:58;;;;;;;;;;;;;;;16.85;73.01;99950.00;5013354;28;20285;-62
2021/09/17 11:10:42;;;;;;;;;;;;;;;16.85;73.05;99943.91;5013058;28;19975;-63
2021/09/17 11:13:26;;;;;;;;;;;;;;;16.86;72.71;99950.88;5013387;28;19929;-64
2021/09/17 11:16:15;;;;;;;;;;;;;;;16.87;72.73;99952.63;5012915;28;19928;-64
2021/09/17 11:19:01;;;;;;;;;;;;;;;16.88;73.01;99944.75;5012453;28;19928;-63
2021/09/17 11:21:46;;;;;;;;;;;;;;;16.91;72.65;99941.22;5013269;28;19968;-63
2021/09/17 11:24:31;;;;;;;;;;;;;;;16.92;72.83;99939.47;5013238;28;19929;-63
2021/09/17 11:27:18;;;;;;;;;;;;;;;16.93;72.88;99941.22;5015307;28;19929;-63
2021/09/17 11:30:08;;;;;;;;;;;;;;;16.93;72.85;99936.81;5015511;28;20300;-63
2021/09/17 11:32:52;;;;;;;;;;;;;;;16.93;72.85;99934.22;5015241;28;20037;-62
2021/09/17 11:35:38;;;;;;;;;;;;;;;16.93;72.84;99930.75;5016500;28;20136;-64
2021/09/17 11:38:25;;;;;;;;;;;;;;;16.94;72.55;99927.25;5016597;28;20289;-63
2021/09/17 11:41:12;;;;;;;;;;;;;;;16.96;72.76;99920.28;5015046;28;20368;-62
2021/09/17 11:43:59;;;;;;;;;;;;;;;16.96;72.83;99922.88;5015986;28;19971;-62
2021/09/17 11:46:43;;;;;;;;;;;;;;;16.97;72.65;99928.09;5015188;28;19968;-62
2021/09/17 11:49:28;;;;;;;;;;;;;;;16.97;72.79;99919.38;5016481;28;19928;-62
2021/09/17 11:52:15;;;;;;;;;;;;;;;16.98;72.64;99926.31;5015152;28;20280;-62
2021/09/17 11:55:08;;;;;;;;;;;;;;;16.99;72.79;99922.81;5014898;28;20440;-62
2021/09/17 11:57:58;;;;;;;;;;;;;;;17.00;72.62;99924.56;5015299;28;19972;-62
2021/09/17 12:00:43;;;;;;;;;;;;;;;17.01;72.84;99921.94;5015212;28;19928;-61
2021/09/17 12:03:27;;;;;;;;;;;;;;;17.04;72.69;99915.78;4964101;28;1882003;-62
2021/09/17 12:06:14;;;;;;;;;;;;;;;17.05;72.55;99915.75;5016585;28;20016;-62
2021/09/17 12:08:58;;;;;;;;;;;;;;;17.07;72.46;99917.50;5016168;28;20423;-62
2021/09/17 12:11:57;;;;;;;;;;;;;;;17.08;72.66;99922.72;5016743;28;20403;-61
2021/09/17 12:14:54;;;;;;;;;;;;;;;17.10;72.42;99918.34;5016569;28;19932;-61
2021/09/17 12:18:04;;;;;;;;;;;;;;;17.12;72.62;99918.31;5016812;28;19928;-63
2021/09/17 12:20:51;;;;;;;;;;;;;;;17.12;72.48;99916.56;5016858;28;19968;-63
2021/09/17 12:23:35;;;;;;;;;;;;;;;17.14;72.45;99919.16;5016687;28;19979;-63
2021/09/17 12:26:19;;;;;;;;;;;;;;;17.14;72.52;99908.69;5016602;28;20027;-63
2021/09/17 12:29:05;;;;;;;;;;;;;;;17.16;72.50;99907.78;5016593;28;20020;-63
2021/09/17 12:31:49;;;;;;;;;;;;;;;17.17;72.49;99904.25;5016059;28;19929;-63
2021/09/17 12:34:33;;;;;;;;;;;;;;;17.20;72.34;99908.63;5016093;28;20029;-63
2021/09/17 12:37:24;;;;;;;;;;;;;;;17.20;72.31;99909.47;5016380;28;19929;-63
2021/09/17 12:40:08;;;;;;;;;;;;;;;17.20;72.34;99912.09;5015339;28;20347;-62
2021/09/17 12:42:59;;;;;;;;;;;;;;;17.23;72.34;99908.56;5016478;28;19972;-63
2021/09/17 12:46:04;;;;;;;;;;;;;;;17.23;72.43;99910.31;5015634;28;19952;-63
2021/09/17 12:48:48;;;;;;;;;;;;;;;17.23;72.31;99907.69;5015989;28;19979;-62
2021/09/17 12:51:34;;;;;;;;;;;;;;;17.24;72.35;99904.19;5015809;28;19928;-62
2021/09/17 12:54:18;;;;;;;;;;;;;;;17.24;72.37;99904.19;5028943;28;19963;-62
2021/09/17 12:57:19;;;;;;;;;;;;;;;17.25;72.48;99898.94;5014952;28;19971;-64
2021/09/17 13:00:04;;;;;;;;;;;;;;;17.27;72.03;99902.41;5015444;28;20313;-63
2021/09/17 13:02:50;;;;;;;;;;;;;;;17.28;72.12;99901.50;5014934;28;19979;-63
2021/09/17 13:05:49;;;;;;;;;;;;;;;17.28;72.01;99898.88;5015159;28;19944;-63
2021/09/17 13:08:44;;;;;;;;;;;;;;;17.28;72.16;99896.28;5014870;28;20032;-63
2021/09/17 13:11:34;;;;;;;;;;;;;;;17.29;72.12;99898.00;5014887;28;19929;-63
2021/09/17 13:14:21;;;;;;;;;;;;;;;17.30;72.11;99897.13;5015044;28;19928;-63
2021/09/17 13:17:08;;;;;;;;;;;;;;;17.31;72.18;99892.72;5015791;28;19928;-63
2021/09/17 13:19:55;;;;;;;;;;;;;;;17.31;72.09;99895.34;5014881;28;19928;-63
2021/09/17 13:22:39;;;;;;;;;;;;;;;17.31;72.09;99893.63;5015047;28;20022;-63
2021/09/17 13:25:24;;;;;;;;;;;;;;;17.30;72.14;99891.88;5015644;28;19987;-63
2021/09/17 13:28:09;;;;;;;;;;;;;;;17.31;72.12;99884.88;5015108;28;20316;-63
2021/09/17 13:30:53;;;;;;;;;;;;;;;17.31;72.07;99891.00;5015715;28;19975;-63
2021/09/17 13:33:37;;;;;;;;;;;;;;;17.31;72.15;99884.88;5015777;28;19928;-63
2021/09/17 13:36:26;;;;;;;;;;;;;;;17.31;71.96;99883.13;5015399;28;19972;-63
2021/09/17 13:39:10;;;;;;;;;;;;;;;17.31;72.07;99890.13;5015181;28;19976;-63
2021/09/17 13:41:54;;;;;;;;;;;;;;;17.31;72.12;99875.28;5014644;28;19928;-63
2021/09/17 13:44:38;;;;;;;;;;;;;;;17.31;71.85;99877.00;5015391;28;19932;-63
2021/09/17 13:47:21;;;;;;;;;;;;;;;17.30;71.95;99868.31;5014849;28;20277;-63
2021/09/17 13:50:07;;;;;;;;;;;;;;;17.31;71.80;99869.16;5014573;28;19933;-63
2021/09/17 13:52:53;;;;;;;;;;;;;;;17.31;71.89;99870.03;5014901;28;19929;-64
2021/09/17 13:55:38;;;;;;;;;;;;;;;17.31;71.93;99862.19;5015184;28;20464;-63
2021/09/17 13:58:24;;;;;;;;;;;;;;;17.31;71.89;99861.31;5015130;28;20009;-64
2021/09/17 14:01:08;;;;;;;;;;;;;;;17.30;71.97;99862.19;5027970;28;20446;-63
2021/09/17 14:03:54;;;;;;;;;;;;;;;17.30;71.74;99860.44;5015269;28;19952;-63
2021/09/17 14:06:41;;;;;;;;;;;;;;;17.30;72.02;99847.34;5014731;28;19928;-61
2021/09/17 14:09:27;;;;;;;;;;;;;;;17.31;71.81;99858.69;5014348;28;19928;-62
2021/09/17 14:12:13;;;;;;;;;;;;;;;17.30;72.04;99844.75;5014675;28;19952;-62
2021/09/17 14:14:57;;;;;;;;;;;;;;;17.31;71.86;99845.59;5027611;28;20016;-61
2021/09/17 14:17:41;;;;;;;;;;;;;;;17.31;71.86;99843.84;5014720;28;19927;-62
2021/09/17 14:20:25;;;;;;;;;;;;;;;17.32;71.73;99839.47;5014305;28;20431;-62
2021/09/17 14:23:11;;;;;;;;;;;;;;;17.32;71.88;99848.19;5014416;28;19928;-62
2021/09/17 14:25:58;;;;;;;;;;;;;;;17.33;71.78;99843.81;5014579;28;20492;-62